Time;durP1;ratioP1;P1;durP2;ratioP2;P2;SDS_P1;SDS_P2;PMS_P1;PMS_P2;Temp;Humidity;BMP_temperature;BMP_pressure;BME280_temperature;BME280_humidity;BME280_pressure;Samples;Min_cycle;Max_cycle;Signal;HPM_P1;HPM_P2
2024/02/08 00:02:13;;;;;;;1.40;1.30;;;10.20;99.90;;;;;;5049427;28;20721;-79
2024/02/08 00:04:39;;;;;;;1.17;1.07;;;8.30;99.90;;;;;;5046191;28;21211;-80
2024/02/08 00:07:06;;;;;;;0.90;0.90;;;;;;;;;;5045833;28;20988;-80
2024/02/08 00:09:34;;;;;;;0.77;0.67;;;;;;;;;;5049299;28;20626;-79
2024/02/08 00:12:02;;;;;;;1.40;0.87;;;;;;;;;;5043711;28;20641;-79
2024/02/08 00:14:28;;;;;;;0.80;0.60;;;8.60;99.90;;;;;;5048884;28;20639;-80
2024/02/08 00:16:56;;;;;;;0.60;0.53;;;;;;;;;;5048876;28;20635;-79
2024/02/08 00:19:24;;;;;;;0.77;0.73;;;8.40;99.90;;;;;;5046777;28;21064;-79
2024/02/08 00:21:51;;;;;;;0.63;0.63;;;;;;;;;;5049578;28;20632;-80
2024/02/08 00:24:19;;;;;;;1.77;1.20;;;8.30;99.90;;;;;;5047847;28;20773;-79
2024/02/08 00:26:45;;;;;;;1.57;0.87;;;8.50;99.90;;;;;;5049071;28;20647;-79
2024/02/08 00:29:13;;;;;;;1.00;0.80;;;;;;;;;;5042768;28;20959;-79
2024/02/08 00:31:40;;;;;;;0.90;0.60;;;;;;;;;;5049216;28;20737;-79
2024/02/08 00:34:07;;;;;;;1.87;1.07;;;;;;;;;;5046788;28;20995;-80
2024/02/08 00:36:35;;;;;;;0.77;0.70;;;8.60;99.90;;;;;;5048514;28;20728;-79
2024/02/08 00:39:06;;;;;;;0.37;0.37;;;8.70;99.90;;;;;;5048136;28;20753;-80
2024/02/08 00:41:33;;;;;;;0.70;0.70;;;10.60;99.90;;;;;;5048434;28;21022;-81
2024/02/08 00:44:00;;;;;;;0.90;0.73;;;;;;;;;;5047677;28;20673;-81
2024/02/08 00:46:27;;;;;;;0.90;0.73;;;;;;;;;;5048689;28;20988;-80
2024/02/08 00:48:55;;;;;;;0.63;0.60;;;;;;;;;;5048222;28;20626;-80
2024/02/08 00:51:23;;;;;;;0.83;0.63;;;;;;;;;;5049304;28;20641;-80
2024/02/08 00:53:51;;;;;;;0.80;0.77;;;8.70;99.90;;;;;;5047412;28;21183;-80
2024/02/08 00:56:19;;;;;;;2.13;1.10;;;;;;;;;;5044453;28;20622;-80
2024/02/08 00:58:47;;;;;;;0.73;0.70;;;;;;;;;;5042852;28;20625;-80
2024/02/08 01:01:14;;;;;;;1.13;0.83;;;;;;;;;;5042865;28;20981;-80
2024/02/08 01:03:41;;;;;;;1.70;0.83;;;;;;;;;;5047927;28;20666;-80
2024/02/08 01:06:08;;;;;;;0.90;0.80;;;;;;;;;;5046267;28;21019;-80
2024/02/08 01:08:35;;;;;;;0.70;0.70;;;;;;;;;;5046220;28;20619;-80
2024/02/08 01:11:03;;;;;;;1.13;0.80;;;7.60;99.90;;;;;;5047461;28;20697;-81
2024/02/08 01:13:31;;;;;;;0.97;0.87;;;;;;;;;;5046678;28;20733;-80
2024/02/08 01:15:58;;;;;;;0.93;0.73;;;;;;;;;;5047652;28;20631;-80
2024/02/08 01:18:25;;;;;;;3.23;1.80;;;;;;;;;;5040625;28;21034;-80
2024/02/08 01:20:53;;;;;;;6.23;0.93;;;8.60;99.90;;;;;;5046286;28;20626;-80
2024/02/08 01:23:22;;;;;;;0.97;0.77;;;8.60;99.90;;;;;;5047246;28;21045;-80
2024/02/08 01:25:49;;;;;;;0.87;0.87;;;8.70;99.90;;;;;;5047835;28;20634;-81
2024/02/08 01:28:17;;;;;;;0.80;0.80;;;8.60;99.90;;;;;;5048172;28;21190;-81
2024/02/08 01:30:45;;;;;;;0.67;0.67;;;8.60;99.90;;;;;;5039117;28;20630;-81
2024/02/08 01:33:12;;;;;;;0.70;0.60;;;8.60;99.90;;;;;;5047881;28;20666;-80
2024/02/08 01:35:39;;;;;;;0.90;0.70;;;8.60;99.90;;;;;;5047404;28;21228;-81
2024/02/08 01:38:07;;;;;;;1.33;0.80;;;8.70;99.90;;;;;;5046900;28;20692;-81
2024/02/08 01:40:35;;;;;;;0.93;0.70;;;8.60;99.90;;;;;;5046938;28;20705;-80
2024/02/08 01:43:04;;;;;;;1.10;0.90;;;8.70;99.90;;;;;;5046199;28;20660;-80
2024/02/08 01:45:34;;;;;;;0.83;0.67;;;8.70;99.90;;;;;;5042900;28;21280;-81
2024/02/08 01:48:03;;;;;;;1.20;0.90;;;8.70;99.90;;;;;;5043649;28;20654;-80
2024/02/08 01:50:33;;;;;;;0.93;0.60;;;8.80;99.90;;;;;;5046565;28;20626;-80
2024/02/08 01:53:00;;;;;;;0.97;0.87;;;8.80;99.90;;;;;;5047364;28;20622;-82
2024/02/08 01:55:33;;;;;;;0.80;0.70;;;8.50;99.90;;;;;;5046013;28;20641;-80
2024/02/08 01:58:02;;;;;;;1.90;1.00;;;8.60;99.90;;;;;;5042834;28;20622;-80
2024/02/08 02:00:30;;;;;;;0.90;0.60;;;;;;;;;;5046428;28;20618;-80
2024/02/08 02:03:02;;;;;;;1.93;1.00;;;8.80;99.90;;;;;;5046503;28;20626;-80
2024/02/08 02:05:29;;;;;;;0.80;0.70;;;8.60;99.90;;;;;;5045310;28;20694;-80
2024/02/08 02:07:58;;;;;;;0.60;0.53;;;8.70;99.90;;;;;;5040807;28;20719;-80
2024/02/08 02:10:29;;;;;;;0.97;0.60;;;;;;;;;;5044753;28;20957;-80
2024/02/08 02:12:58;;;;;;;1.20;0.63;;;;;;;;;;5041190;28;20630;-80
2024/02/08 02:15:31;;;;;;;0.70;0.53;;;;;;;;;;5047118;28;20713;-79
2024/02/08 02:18:01;;;;;;;0.63;0.63;;;8.80;99.90;;;;;;5043905;28;20674;-80
2024/02/08 02:20:30;;;;;;;0.60;0.60;;;;;;;;;;5046320;28;20622;-80
2024/02/08 02:23:01;;;;;;;0.70;0.57;;;8.80;99.90;;;;;;5044121;28;21203;-81
2024/02/08 02:25:32;;;;;;;0.63;0.50;;;9.30;99.90;;;;;;5045033;28;20719;-80
2024/02/08 02:28:03;;;;;;;1.27;0.77;;;8.70;99.90;;;;;;5047808;28;20996;-80
2024/02/08 02:30:35;;;;;;;0.97;0.80;;;8.60;99.90;;;;;;5044651;28;21199;-80
2024/02/08 02:33:04;;;;;;;1.30;0.87;;;8.70;99.90;;;;;;5047120;28;20985;-82
2024/02/08 02:35:32;;;;;;;1.40;0.90;;;8.80;99.90;;;;;;5046190;28;20619;-81
2024/02/08 02:38:02;;;;;;;0.50;0.40;;;8.80;99.90;;;;;;5046271;28;20680;-80
2024/02/08 02:40:30;;;;;;;0.57;0.47;;;8.80;99.90;;;;;;5044143;28;21254;-80
2024/02/08 02:42:58;;;;;;;1.13;1.07;;;8.80;99.90;;;;;;5049200;28;20645;-80
2024/02/08 02:45:28;;;;;;;1.13;0.67;;;8.80;99.90;;;;;;5047757;28;20660;-80
2024/02/08 02:47:57;;;;;;;0.63;0.63;;;8.80;99.90;;;;;;5051117;28;20721;-81
2024/02/08 02:50:25;;;;;;;0.90;0.87;;;8.80;99.90;;;;;;5050564;28;20623;-80
2024/02/08 02:52:52;;;;;;;1.57;0.80;;;8.90;99.90;;;;;;5047550;28;20958;-80
2024/02/08 02:55:22;;;;;;;0.53;0.53;;;8.90;99.90;;;;;;5048020;28;20615;-80
2024/02/08 02:57:50;;;;;;;1.57;0.60;;;8.80;99.90;;;;;;5047787;28;20615;-82
2024/02/08 03:00:22;;;;;;;0.70;0.70;;;8.80;99.90;;;;;;5050697;28;20622;-79
2024/02/08 03:02:50;;;;;;;1.20;0.87;;;8.80;99.90;;;;;;5041614;28;20628;-82
2024/02/08 03:05:20;;;;;;;1.03;0.70;;;8.80;99.90;;;;;;5046247;28;20720;-80
2024/02/08 03:07:49;;;;;;;0.50;0.50;;;8.70;99.90;;;;;;5051501;28;20627;-80
2024/02/08 03:10:19;;;;;;;0.70;0.57;;;8.80;99.90;;;;;;5044478;28;20667;-80
2024/02/08 03:12:50;;;;;;;3.03;0.73;;;8.80;99.90;;;;;;5046178;28;20627;-80
2024/02/08 03:15:19;;;;;;;1.30;0.73;;;8.80;99.90;;;;;;5050386;28;21276;-80
2024/02/08 03:17:47;;;;;;;0.60;0.40;;;8.80;99.90;;;;;;5042313;28;21267;-80
2024/02/08 03:20:18;;;;;;;0.50;0.50;;;8.80;99.90;;;;;;5048102;28;20695;-80
2024/02/08 03:22:46;;;;;;;0.43;0.43;;;8.70;99.90;;;;;;5050132;28;20626;-80
2024/02/08 03:25:14;;;;;;;0.60;0.60;;;8.10;99.90;;;;;;5047100;28;21019;-80
2024/02/08 03:27:43;;;;;;;0.50;0.47;;;8.80;99.90;;;;;;5039818;28;20732;-81
2024/02/08 03:30:19;;;;;;;0.53;0.47;;;8.80;99.90;;;;;;5047571;28;21294;-80
2024/02/08 03:32:52;;;;;;;0.70;0.50;;;8.80;99.90;;;;;;5044201;28;20699;-80
2024/02/08 03:35:25;;;;;;;1.83;0.57;;;8.90;99.90;;;;;;5046807;28;20619;-80
2024/02/08 03:37:55;;;;;;;0.60;0.60;;;8.80;99.90;;;;;;5040222;28;20636;-80
2024/02/08 03:40:22;;;;;;;0.90;0.60;;;8.90;99.90;;;;;;5047913;28;20632;-80
2024/02/08 03:42:49;;;;;;;0.57;0.57;;;8.90;99.90;;;;;;5049622;28;20713;-80
2024/02/08 03:45:23;;;;;;;0.30;0.30;;;8.90;99.90;;;;;;5045786;28;20662;-80
2024/02/08 03:47:51;;;;;;;0.60;0.60;;;8.90;99.90;;;;;;5049716;28;20627;-80
2024/02/08 03:50:18;;;;;;;0.60;0.60;;;8.80;99.90;;;;;;5047282;28;20635;-80
2024/02/08 03:52:45;;;;;;;0.40;0.40;;;8.80;99.90;;;;;;5048975;28;20650;-80
2024/02/08 03:55:16;;;;;;;1.47;0.60;;;9.00;99.90;;;;;;5047969;28;20670;-80
2024/02/08 03:57:48;;;;;;;0.60;0.50;;;8.90;99.90;;;;;;5036132;28;20718;-80
2024/02/08 04:00:27;;;;;;;0.60;0.60;;;8.90;99.90;;;;;;5049807;28;20621;-80
2024/02/08 04:02:57;;;;;;;1.70;0.50;;;8.90;99.90;;;;;;5047849;28;21202;-80
2024/02/08 04:05:36;;;;;;;0.50;0.50;;;9.00;99.90;;;;;;5049460;28;20701;-80
2024/02/08 04:08:22;;;;;;;1.43;0.67;;;9.00;99.90;;;;;;5049249;28;20776;-80
2024/02/08 04:54:50;;;;;;;0.43;0.43;;;9.00;99.90;;;;;;5040685;28;21084;-75
2024/02/08 04:57:17;;;;;;;0.50;0.50;;;;;;;;;;5042419;28;21180;-75
2024/02/08 04:59:45;;;;;;;0.53;0.53;;;9.00;99.90;;;;;;5048888;28;20623;-74
2024/02/08 05:02:12;;;;;;;0.90;0.50;;;8.90;99.90;;;;;;5047428;28;20631;-75
2024/02/08 05:04:40;;;;;;;1.17;0.93;;;9.10;99.90;;;;;;5040179;28;20662;-75
2024/02/08 05:07:07;;;;;;;0.50;0.40;;;9.00;99.90;;;;;;5046840;28;20614;-75
2024/02/08 05:09:35;;;;;;;0.80;0.70;;;9.80;99.90;;;;;;5039582;28;21191;-76
2024/02/08 05:12:05;;;;;;;0.50;0.50;;;9.70;99.90;;;;;;5048799;28;21050;-75
2024/02/08 05:14:34;;;;;;;0.83;0.83;;;9.00;99.90;;;;;;5043818;28;20636;-75
2024/02/08 05:17:01;;;;;;;0.90;0.70;;;9.10;99.90;;;;;;5048409;28;20642;-75
2024/02/08 05:19:28;;;;;;;0.50;0.50;;;9.00;99.90;;;;;;5047107;28;20725;-75
2024/02/08 05:21:59;;;;;;;1.03;0.60;;;9.20;99.90;;;;;;5045733;28;20984;-75
2024/02/08 05:24:27;;;;;;;0.60;0.60;;;9.00;99.90;;;;;;5047819;28;20630;-75
2024/02/08 05:26:54;;;;;;;0.70;0.70;;;9.00;99.90;;;;;;5047578;28;20712;-75
2024/02/08 05:29:21;;;;;;;3.43;1.13;;;9.00;99.90;;;;;;5044445;28;20638;-75
2024/02/08 05:31:48;;;;;;;0.83;0.83;;;8.80;99.90;;;;;;5040492;28;20626;-75
2024/02/08 05:34:15;;;;;;;0.73;0.70;;;8.90;99.90;;;;;;5039856;28;20636;-75
2024/02/08 05:36:42;;;;;;;0.50;0.50;;;8.80;99.90;;;;;;5046848;28;20630;-74
2024/02/08 05:39:11;;;;;;;0.87;0.60;;;9.00;99.90;;;;;;5046640;28;20737;-74
2024/02/08 05:41:38;;;;;;;0.97;0.97;;;8.80;99.90;;;;;;5037903;28;20630;-74
2024/02/08 05:44:07;;;;;;;1.03;0.93;;;8.80;99.90;;;;;;5047706;28;20642;-73
2024/02/08 05:46:38;;;;;;;0.93;0.83;;;8.70;99.90;;;;;;5039086;28;21004;-76
2024/02/08 05:49:11;;;;;;;0.67;0.67;;;8.70;99.90;;;;;;5048331;28;20695;-76
2024/02/08 05:51:42;;;;;;;0.80;0.80;;;8.70;99.90;;;;;;5047508;28;20634;-75
2024/02/08 05:54:16;;;;;;;0.70;0.50;;;8.70;99.90;;;;;;5045665;28;21183;-76
2024/02/08 05:56:43;;;;;;;1.73;0.87;;;8.70;99.90;;;;;;5034802;28;20957;-76
2024/02/08 05:59:10;;;;;;;0.97;0.70;;;8.40;99.90;;;;;;5047174;28;20988;-75
2024/02/08 06:01:44;;;;;;;1.10;0.70;;;8.80;99.90;;;;;;5044537;28;20726;-75
2024/02/08 06:04:12;;;;;;;0.77;0.60;;;8.70;99.90;;;;;;5044078;28;20626;-76
2024/02/08 06:06:48;;;;;;;0.70;0.50;;;;;;;;;;5047480;28;20853;-75
2024/02/08 06:09:37;;;;;;;0.50;0.50;;;8.60;99.90;;;;;;5047443;28;21071;-73
2024/02/08 06:12:09;;;;;;;1.00;0.80;;;;;;;;;;5043230;28;20630;-73
2024/02/08 06:14:38;;;;;;;1.50;0.67;;;;;;;;;;5047094;28;20626;-72
2024/02/08 06:17:07;;;;;;;2.37;0.83;;;8.60;99.90;;;;;;5037122;28;20645;-73
2024/02/08 06:19:37;;;;;;;0.67;0.67;;;8.50;99.90;;;;;;5050826;28;20644;-73
2024/02/08 06:22:16;;;;;;;1.63;0.93;;;;;;;;;;5050846;28;20656;-74
2024/02/08 06:24:44;;;;;;;0.80;0.80;;;8.70;99.90;;;;;;5041783;28;20626;-74
2024/02/08 06:27:14;;;;;;;1.10;1.00;;;8.70;99.90;;;;;;5043896;28;20628;-74
2024/02/08 06:29:46;;;;;;;1.20;1.10;;;8.60;99.90;;;;;;5041270;28;20619;-74
2024/02/08 06:32:33;;;;;;;1.37;0.80;;;8.60;99.90;;;;;;5051766;28;20617;-74
2024/02/08 06:35:06;;;;;;;3.80;1.20;;;8.60;99.90;;;;;;5048254;28;20996;-75
2024/02/08 06:37:42;;;;;;;1.43;0.90;;;;;;;;;;5050585;28;20638;-75
2024/02/08 06:40:17;;;;;;;1.30;1.20;;;8.60;99.90;;;;;;5046886;28;20659;-77
2024/02/08 07:37:46;;;;;;;1.37;1.10;;;8.80;99.90;;;;;;5050182;28;20662;-78
2024/02/08 07:40:24;;;;;;;2.07;1.13;;;10.30;99.90;;;;;;5050319;28;20665;-78
2024/02/08 07:43:16;;;;;;;1.83;0.93;;;8.80;99.90;;;;;;5049732;28;20630;-77
2024/02/08 07:45:47;;;;;;;1.13;1.03;;;8.80;99.90;;;;;;5041962;28;20693;-77
2024/02/08 07:48:14;;;;;;;4.00;1.20;;;8.80;99.90;;;;;;5050060;28;20633;-77
2024/02/08 07:50:47;;;;;;;1.60;1.23;;;8.90;99.90;;;;;;5044242;28;20637;-77
2024/02/08 07:53:33;;;;;;;0.77;0.77;;;8.80;99.90;;;;;;5049262;28;20980;-77
2024/02/08 07:56:25;;;;;;;1.23;1.00;;;8.80;99.90;;;;;;5044385;28;20638;-77
2024/02/08 07:58:48;;;;;;;0.90;0.80;;;;;;;;;;5043730;28;20622;-77
2024/02/08 08:01:18;;;;;;;4.47;1.20;;;8.90;99.90;;;;;;5049621;28;20637;-76
2024/02/08 08:03:45;;;;;;;1.70;1.00;;;7.90;99.90;;;;;;5049582;28;21079;-77
2024/02/08 08:06:15;;;;;;;1.13;1.03;;;;;;;;;;5049542;28;20668;-76
2024/02/08 08:08:54;;;;;;;0.83;0.83;;;;;;;;;;5049711;28;20641;-76
2024/02/08 08:11:25;;;;;;;0.63;0.63;;;;;;;;;;5048735;28;20749;-76
2024/02/08 08:14:09;;;;;;;1.00;0.90;;;9.00;99.90;;;;;;5049305;28;20631;-76
2024/02/08 08:16:37;;;;;;;2.93;1.03;;;9.10;99.90;;;;;;5048992;28;20941;-76
2024/02/08 08:19:08;;;;;;;0.70;0.70;;;10.20;99.90;;;;;;5049464;28;21071;-76
2024/02/08 08:22:03;;;;;;;1.23;1.10;;;9.10;99.90;;;;;;5049350;28;21015;-77
2024/02/08 08:24:25;;;;;;;4.47;1.17;;;;;;;;;;5046122;28;21182;-76
2024/02/08 08:27:06;;;;;;;1.23;1.13;;;9.10;99.90;;;;;;5049002;28;20666;-76
2024/02/08 08:29:42;;;;;;;1.00;1.00;;;9.30;99.90;;;;;;5049132;28;20630;-76
2024/02/08 08:37:44;;;;;;;2.03;1.37;;;;;;;;;;5048278;28;20942;-76
2024/02/08 08:40:25;;;;;;;1.63;1.53;;;9.40;99.90;;;;;;5048874;28;20632;-76
2024/02/08 08:42:54;;;;;;;2.40;1.70;;;11.70;99.90;;;;;;5042384;28;20986;-75
2024/02/08 08:45:22;;;;;;;1.90;1.30;;;9.30;99.90;;;;;;5049160;28;20665;-75
2024/02/08 08:47:51;;;;;;;3.17;1.50;;;;;;;;;;5048485;28;20728;-75
2024/02/08 08:50:18;;;;;;;1.67;1.43;;;;;;;;;;5048911;28;20676;-75
2024/02/08 08:52:49;;;;;;;1.80;1.43;;;9.50;99.90;;;;;;5048325;28;20627;-76
2024/02/08 08:55:18;;;;;;;1.57;0.90;;;9.50;99.90;;;;;;5048568;28;20627;-75
2024/02/08 08:57:51;;;;;;;1.30;1.20;;;;;;;;;;5048829;28;20876;-75
2024/02/08 09:00:31;;;;;;;0.80;0.80;;;10.00;99.90;;;;;;5048709;28;20637;-75
2024/02/08 09:03:00;;;;;;;2.30;1.33;;;9.60;99.90;;;;;;5042857;28;20629;-75
2024/02/08 09:05:31;;;;;;;0.97;0.80;;;9.70;99.90;;;;;;5048165;28;20766;-75
2024/02/08 09:07:59;;;;;;;1.50;1.10;;;;;;;;;;5048684;28;21185;-75
2024/02/08 09:10:25;;;;;;;1.80;1.00;;;10.00;99.90;;;;;;5047821;28;20731;-75
2024/02/08 09:13:00;;;;;;;1.67;1.13;;;9.80;99.90;;;;;;5047323;28;20622;-75
2024/02/08 09:15:41;;;;;;;0.90;0.90;;;9.70;99.90;;;;;;5048560;28;20984;-75
2024/02/08 09:18:09;;;;;;;0.70;0.70;;;9.60;99.90;;;;;;5044502;28;20638;-75
2024/02/08 09:20:37;;;;;;;0.70;0.70;;;;;;;;;;5048549;28;20728;-74
2024/02/08 09:23:12;;;;;;;1.20;1.10;;;9.70;99.90;;;;;;5047622;28;20638;-74
2024/02/08 09:25:44;;;;;;;1.07;0.80;;;9.70;99.90;;;;;;5047736;28;20677;-74
2024/02/08 09:28:24;;;;;;;0.50;0.50;;;;;;;;;;5048302;28;20638;-74
2024/02/08 09:30:53;;;;;;;0.97;0.97;;;;;;;;;;5041760;28;20632;-74
2024/02/08 09:33:44;;;;;;;1.53;1.10;;;9.80;99.90;;;;;;5047814;28;20630;-74
2024/02/08 09:36:14;;;;;;;0.93;0.80;;;;;;;;;;5048308;28;20627;-75
2024/02/08 09:38:43;;;;;;;1.10;1.03;;;9.90;99.90;;;;;;5048291;28;20624;-74
2024/02/08 09:41:15;;;;;;;1.33;1.23;;;9.90;99.90;;;;;;5048386;28;21000;-74
2024/02/08 09:43:44;;;;;;;0.80;0.80;;;;;;;;;;5047840;28;20632;-74
2024/02/08 09:46:28;;;;;;;1.13;0.90;;;10.10;99.90;;;;;;5047688;28;20778;-74
2024/02/08 09:48:59;;;;;;;1.17;1.07;;;10.10;99.90;;;;;;5041654;28;20893;-74
2024/02/08 09:51:29;;;;;;;0.73;0.73;;;10.10;99.90;;;;;;5046123;28;20983;-74
2024/02/08 09:54:14;;;;;;;1.80;1.13;;;10.20;99.90;;;;;;5039687;28;20629;-74
2024/02/08 09:56:50;;;;;;;1.17;1.10;;;10.10;99.90;;;;;;5045809;28;20630;-74
2024/02/08 09:59:33;;;;;;;1.50;0.97;;;10.20;99.90;;;;;;5048209;28;20730;-74
2024/02/08 10:02:04;;;;;;;1.10;1.00;;;10.20;99.90;;;;;;5048590;28;20636;-74
2024/02/08 10:04:32;;;;;;;1.00;0.93;;;10.20;99.90;;;;;;5047383;28;20752;-75
2024/02/08 10:07:05;;;;;;;0.80;0.73;;;10.20;99.90;;;;;;5047030;28;21046;-75
2024/02/08 10:09:36;;;;;;;0.63;0.63;;;10.40;99.90;;;;;;5047567;28;21229;-74
2024/02/08 10:12:06;;;;;;;0.60;0.60;;;10.40;99.90;;;;;;5048017;28;20652;-74
2024/02/08 10:14:34;;;;;;;0.60;0.60;;;10.40;99.90;;;;;;5047557;28;20994;-74
2024/02/08 10:17:14;;;;;;;1.10;0.80;;;10.30;99.90;;;;;;5047758;28;21122;-75
2024/02/08 10:20:32;;;;;;;0.70;0.70;;;10.40;99.90;;;;;;5047433;28;20613;-74
2024/02/08 10:22:53;;;;;;;0.77;0.77;;;10.30;99.90;;;;;;5046990;28;20634;-74
2024/02/08 10:28:07;;;;;;;1.00;0.60;;;10.40;99.90;;;;;;5047364;28;20642;-74
2024/02/08 10:30:36;;;;;;;1.57;1.03;;;11.00;99.90;;;;;;5047846;28;20744;-74
2024/02/08 10:33:04;;;;;;;0.80;0.63;;;13.30;99.90;;;;;;5047794;28;20643;-74
2024/02/08 10:35:39;;;;;;;1.00;0.70;;;10.60;99.90;;;;;;5047868;28;20627;-74
2024/02/08 10:38:18;;;;;;;0.73;0.70;;;10.60;99.90;;;;;;5047700;28;20633;-74
2024/02/08 10:40:55;;;;;;;0.70;0.70;;;10.60;99.90;;;;;;5047625;28;21181;-74
2024/02/08 10:43:24;;;;;;;1.07;0.80;;;10.70;99.90;;;;;;5047117;28;20625;-74
2024/02/08 10:45:53;;;;;;;1.00;0.67;;;10.60;99.90;;;;;;5047775;28;21182;-74
2024/02/08 10:48:22;;;;;;;0.70;0.70;;;10.50;99.90;;;;;;5047008;28;20633;-74
2024/02/08 10:50:51;;;;;;;0.50;0.50;;;10.60;99.90;;;;;;5047275;28;21381;-74
2024/02/08 10:53:43;;;;;;;0.47;0.47;;;10.60;99.90;;;;;;5047011;28;20654;-74
2024/02/08 10:56:14;;;;;;;0.80;0.80;;;10.30;99.90;;;;;;5043753;28;20637;-74
2024/02/08 10:58:55;;;;;;;1.10;0.97;;;9.90;99.90;;;;;;5046976;28;20632;-74
2024/02/08 11:01:32;;;;;;;0.60;0.60;;;10.50;99.90;;;;;;5046590;28;20628;-74
2024/02/08 11:04:01;;;;;;;0.80;0.77;;;10.50;99.90;;;;;;5048168;28;20624;-74
2024/02/08 11:06:32;;;;;;;1.43;0.70;;;10.50;99.90;;;;;;5050754;28;21248;-74
2024/02/08 11:09:17;;;;;;;0.90;0.57;;;;;;;;;;5050676;28;20748;-75
2024/02/08 11:11:51;;;;;;;0.77;0.77;;;10.80;99.90;;;;;;5042820;28;20621;-74
2024/02/08 11:14:20;;;;;;;1.27;0.60;;;10.80;99.90;;;;;;5050562;28;20719;-74
2024/02/08 11:16:52;;;;;;;0.60;0.60;;;10.80;99.90;;;;;;5050947;28;21008;-74
2024/02/08 11:19:22;;;;;;;1.03;0.80;;;;;;;;;;5050452;28;20633;-74
2024/02/08 11:21:51;;;;;;;1.00;0.90;;;11.10;99.90;;;;;;5050696;28;20653;-74
2024/02/08 11:24:27;;;;;;;0.73;0.50;;;11.20;99.90;;;;;;5049724;28;20637;-74
2024/02/08 11:26:57;;;;;;;0.60;0.60;;;11.20;99.90;;;;;;5050540;28;20669;-74
2024/02/08 11:29:27;;;;;;;0.70;0.60;;;11.30;99.90;;;;;;5050524;28;20764;-74
2024/02/08 11:31:56;;;;;;;1.17;1.07;;;;;;;;;;5051017;28;20684;-74
2024/02/08 11:34:24;;;;;;;0.83;0.40;;;;;;;;;;5049863;28;20628;-74
2024/02/08 11:36:53;;;;;;;0.80;0.40;;;11.40;99.90;;;;;;5050342;28;20626;-74
2024/02/08 11:39:31;;;;;;;0.80;0.70;;;11.30;99.90;;;;;;5050416;28;21006;-74
2024/02/08 11:42:00;;;;;;;0.57;0.53;;;11.50;99.90;;;;;;5049967;28;21247;-75
2024/02/08 11:44:29;;;;;;;0.30;0.30;;;11.60;99.90;;;;;;5049125;28;20622;-74
2024/02/08 11:46:59;;;;;;;0.57;0.53;;;11.50;99.90;;;;;;5049398;28;20658;-74
2024/02/08 11:49:35;;;;;;;1.03;0.90;;;11.50;99.90;;;;;;5050306;28;20648;-74
2024/02/08 11:52:10;;;;;;;2.03;0.80;;;11.40;99.90;;;;;;5050109;28;20634;-74
2024/02/08 11:54:38;;;;;;;1.73;0.77;;;11.50;99.90;;;;;;5048204;28;20637;-74
2024/02/08 11:57:06;;;;;;;0.63;0.63;;;11.40;99.90;;;;;;5044539;28;20634;-74
2024/02/08 11:59:37;;;;;;;0.73;0.50;;;11.60;99.90;;;;;;5049452;28;20655;-74
2024/02/08 12:02:08;;;;;;;0.80;0.80;;;;;;;;;;5050323;28;20640;-74
2024/02/08 12:04:35;;;;;;;2.23;0.80;;;11.50;99.90;;;;;;5049354;28;20680;-74
2024/02/08 12:07:07;;;;;;;0.80;0.60;;;11.50;99.90;;;;;;5049671;28;20661;-74
2024/02/08 12:09:34;;;;;;;1.37;1.27;;;;;;;;;;5049426;28;20637;-74
2024/02/08 12:12:03;;;;;;;0.70;0.70;;;;;;;;;;5049289;28;20744;-74
2024/02/08 12:14:30;;;;;;;2.00;0.80;;;;;;;;;;5048879;28;20630;-74
2024/02/08 12:16:58;;;;;;;0.70;0.70;;;11.30;99.90;;;;;;5049355;28;21023;-74
2024/02/08 12:19:25;;;;;;;0.77;0.60;;;11.60;99.90;;;;;;5049313;28;21247;-74
2024/02/08 12:21:57;;;;;;;1.00;0.60;;;11.60;99.90;;;;;;5048093;28;20634;-74
2024/02/08 12:24:25;;;;;;;0.80;0.70;;;11.70;99.90;;;;;;5045518;28;20627;-74
2024/02/08 12:26:54;;;;;;;0.70;0.70;;;11.80;99.90;;;;;;5045051;28;21365;-74
2024/02/08 12:29:25;;;;;;;1.57;0.90;;;11.50;99.90;;;;;;5048670;28;20627;-74
2024/02/08 12:31:54;;;;;;;3.83;0.77;;;;;;;;;;5045514;28;20628;-75
2024/02/08 12:34:31;;;;;;;1.63;0.80;;;11.70;99.90;;;;;;5046907;28;20627;-74
2024/02/08 12:37:05;;;;;;;3.60;1.07;;;11.60;99.90;;;;;;5048885;28;20696;-74
2024/02/08 12:39:35;;;;;;;2.40;0.60;;;11.60;99.90;;;;;;5043957;28;20627;-74
2024/02/08 12:42:05;;;;;;;3.50;1.50;;;11.50;99.90;;;;;;5043968;28;20635;-74
2024/02/08 12:44:34;;;;;;;1.70;1.10;;;10.00;99.90;;;;;;5048171;28;20684;-74
2024/02/08 12:47:05;;;;;;;0.80;0.80;;;;;;;;;;5048910;28;20749;-74
2024/02/08 12:49:33;;;;;;;8.20;1.40;;;;;;;;;;5042515;28;20637;-74
2024/02/08 12:52:03;;;;;;;1.27;0.80;;;11.90;99.90;;;;;;5048694;28;21207;-74
2024/02/08 12:54:30;;;;;;;1.93;1.33;;;;;;;;;;5048215;28;20662;-74
2024/02/08 12:57:08;;;;;;;2.37;1.20;;;12.00;99.90;;;;;;5043029;28;21124;-74
2024/02/08 12:59:36;;;;;;;3.70;2.07;;;;;;;;;;5048752;28;20634;-74
2024/02/08 13:02:08;;;;;;;2.53;1.10;;;;;;;;;;5048256;28;21047;-74
2024/02/08 13:04:36;;;;;;;3.83;1.57;;;;;;;;;;5048092;28;20720;-74
2024/02/08 13:07:04;;;;;;;1.33;1.10;;;;;;;;;;5048226;28;20660;-74
2024/02/08 13:09:36;;;;;;;2.10;1.30;;;;;;;;;;5048380;28;20625;-74
2024/02/08 13:12:16;;;;;;;4.10;1.47;;;12.10;99.90;;;;;;5049012;28;20631;-74
2024/02/08 13:14:49;;;;;;;4.00;1.40;;;;;;;;;;5048038;28;20639;-74
2024/02/08 13:17:18;;;;;;;3.80;1.40;;;12.20;99.90;;;;;;5048451;28;20632;-74
2024/02/08 13:19:47;;;;;;;7.20;1.97;;;12.30;99.90;;;;;;5040592;28;20651;-74
2024/02/08 13:22:15;;;;;;;6.10;1.50;;;;;;;;;;5048534;28;20636;-74
2024/02/08 13:24:43;;;;;;;7.60;2.67;;;;;;;;;;5048324;28;20611;-75
2024/02/08 13:27:11;;;;;;;2.50;1.60;;;12.30;99.90;;;;;;5046777;28;20659;-75
2024/02/08 13:29:38;;;;;;;3.10;1.90;;;;;;;;;;5047904;28;21166;-75
2024/02/08 13:32:05;;;;;;;2.13;1.53;;;12.40;99.90;;;;;;5047875;28;20629;-75
2024/02/08 13:34:33;;;;;;;5.23;1.77;;;12.20;99.90;;;;;;5047826;28;20632;-74
2024/02/08 13:37:00;;;;;;;7.90;3.40;;;;;;;;;;5048364;28;20653;-74
2024/02/08 13:39:27;;;;;;;8.90;2.27;;;;;;;;;;5048242;28;20628;-74
2024/02/08 13:41:55;;;;;;;10.57;2.30;;;;;;;;;;5048137;28;20763;-74
2024/02/08 13:44:24;;;;;;;7.23;2.67;;;12.40;99.90;;;;;;5047259;28;20633;-74
2024/02/08 13:46:51;;;;;;;3.30;1.93;;;;;;;;;;5039053;28;20631;-75
2024/02/08 13:49:21;;;;;;;3.03;1.70;;;;;;;;;;5045817;28;20766;-74
2024/02/08 13:51:50;;;;;;;5.77;2.33;;;;;;;;;;5041799;28;20634;-75
2024/02/08 13:54:18;;;;;;;11.53;2.70;;;;;;;;;;5046411;28;20636;-75
2024/02/08 13:56:45;;;;;;;3.97;2.60;;;;;;;;;;5042652;28;20639;-75
2024/02/08 13:59:14;;;;;;;7.23;2.63;;;;;;;;;;5044348;28;21054;-75
2024/02/08 14:01:44;;;;;;;4.30;1.73;;;12.30;99.90;;;;;;5048032;28;20731;-74
2024/02/08 14:04:20;;;;;;;3.83;2.20;;;;;;;;;;5047513;28;20982;-75
2024/02/08 14:06:55;;;;;;;6.73;2.57;;;;;;;;;;5047361;28;20713;-75
2024/02/08 14:09:24;;;;;;;5.00;2.57;;;;;;;;;;5047827;28;20757;-74
2024/02/08 14:11:55;;;;;;;4.43;2.20;;;;;;;;;;5047843;28;21174;-74
2024/02/08 14:14:29;;;;;;;8.67;2.13;;;;;;;;;;5047332;28;20951;-75
2024/02/08 14:16:58;;;;;;;6.83;3.13;;;12.30;99.90;;;;;;5041077;28;20638;-74
2024/02/08 14:19:33;;;;;;;4.60;1.70;;;12.30;99.90;;;;;;5047583;28;20644;-75
2024/02/08 14:22:06;;;;;;;8.93;3.33;;;;;;;;;;5047860;28;20646;-74
2024/02/08 14:24:38;;;;;;;8.60;2.50;;;12.20;99.90;;;;;;5047315;28;20624;-75
2024/02/08 14:27:06;;;;;;;8.03;2.33;;;;;;;;;;5047680;28;20702;-75
2024/02/08 14:29:35;;;;;;;9.37;2.07;;;;;;;;;;5046585;28;21178;-74
2024/02/08 14:32:05;;;;;;;16.33;2.67;;;12.20;99.90;;;;;;5047452;28;20674;-74
2024/02/08 14:34:35;;;;;;;8.20;2.53;;;;;;;;;;5047299;28;20998;-74
2024/02/08 14:37:03;;;;;;;4.10;2.00;;;;;;;;;;5047662;28;20663;-74
2024/02/08 14:39:32;;;;;;;9.70;3.60;;;;;;;;;;5050721;28;20998;-74
2024/02/08 14:42:00;;;;;;;13.50;3.00;;;12.20;99.90;;;;;;5050939;28;20642;-75
2024/02/08 14:44:40;;;;;;;8.23;2.90;;;;;;;;;;5050976;28;21251;-74
2024/02/08 14:47:10;;;;;;;6.63;3.00;;;10.30;99.90;;;;;;5051348;28;21206;-74
2024/02/08 14:49:54;;;;;;;9.00;3.10;;;;;;;;;;5050999;28;20645;-74
2024/02/08 14:52:26;;;;;;;6.50;2.10;;;12.20;99.90;;;;;;5050018;28;20636;-74
2024/02/08 14:54:57;;;;;;;5.10;2.13;;;;;;;;;;5047960;28;20657;-75
2024/02/08 14:57:25;;;;;;;7.53;3.00;;;;;;;;;;5048671;28;20678;-75
2024/02/08 15:00:18;;;;;;;5.13;2.37;;;;;;;;;;5050357;28;20975;-75
2024/02/08 15:02:43;;;;;;;6.30;2.23;;;12.10;99.90;;;;;;5035788;28;20635;-75
2024/02/08 15:05:12;;;;;;;11.60;2.90;;;;;;;;;;5050753;28;20638;-74
2024/02/08 15:07:47;;;;;;;8.33;2.70;;;;;;;;;;5049463;28;21318;-74
2024/02/08 15:10:15;;;;;;;9.67;4.13;;;;;;;;;;5046974;28;20624;-74
2024/02/08 15:12:51;;;;;;;6.97;2.83;;;;;;;;;;5048256;28;20637;-74
2024/02/08 15:15:29;;;;;;;9.53;3.50;;;;;;;;;;5039572;28;20632;-75
2024/02/08 15:18:10;;;;;;;10.13;3.40;;;12.10;99.90;;;;;;5039917;28;20756;-75
2024/02/08 15:20:43;;;;;;;4.17;2.63;;;11.90;99.90;;;;;;5050133;28;20628;-75
2024/02/08 15:23:10;;;;;;;6.10;2.40;;;11.90;99.90;;;;;;5046072;28;20983;-74
2024/02/08 15:25:44;;;;;;;5.07;2.73;;;11.90;99.90;;;;;;5049764;28;20623;-75
2024/02/08 15:28:25;;;;;;;8.90;3.33;;;11.80;99.90;;;;;;5045110;28;20667;-74
2024/02/08 15:30:55;;;;;;;7.13;3.20;;;;;;;;;;5050146;28;20623;-75